sensor_id;sensor_type;location;lat;lon;timestamp;temperature;humidity
7704;DHT22;3894;49.700;10.770;2023-05-07T00:01:35;14.20;99.90
7704;DHT22;3894;49.700;10.770;2023-05-07T00:04:01;14.20;99.90
7704;DHT22;3894;49.700;10.770;2023-05-07T00:06:26;14.20;99.90
7704;DHT22;3894;49.700;10.770;2023-05-07T00:08:54;14.20;99.90
7704;DHT22;3894;49.700;10.770;2023-05-07T00:11:21;14.20;99.90
7704;DHT22;3894;49.700;10.770;2023-05-07T00:13:47;14.20;99.90
7704;DHT22;3894;49.700;10.770;2023-05-07T00:16:13;14.20;99.90
7704;DHT22;3894;49.700;10.770;2023-05-07T00:18:39;14.30;99.90
7704;DHT22;3894;49.700;10.770;2023-05-07T00:21:05;14.30;99.90
7704;DHT22;3894;49.700;10.770;2023-05-07T00:23:30;14.30;99.90
7704;DHT22;3894;49.700;10.770;2023-05-07T00:25:56;14.20;99.90
7704;DHT22;3894;49.700;10.770;2023-05-07T00:28:22;14.20;99.90
7704;DHT22;3894;49.700;10.770;2023-05-07T00:30:47;14.20;99.90
7704;DHT22;3894;49.700;10.770;2023-05-07T00:33:13;14.20;99.90
7704;DHT22;3894;49.700;10.770;2023-05-07T00:35:38;14.20;99.90
7704;DHT22;3894;49.700;10.770;2023-05-07T00:38:04;14.20;99.90
7704;DHT22;3894;49.700;10.770;2023-05-07T00:40:30;14.10;99.90
7704;DHT22;3894;49.700;10.770;2023-05-07T00:42:55;14.10;99.90
7704;DHT22;3894;49.700;10.770;2023-05-07T00:45:27;14.00;99.90
7704;DHT22;3894;49.700;10.770;2023-05-07T00:47:57;14.00;99.90
7704;DHT22;3894;49.700;10.770;2023-05-07T00:50:23;13.90;99.90
7704;DHT22;3894;49.700;10.770;2023-05-07T00:52:49;13.90;99.90
7704;DHT22;3894;49.700;10.770;2023-05-07T00:55:15;13.90;99.90
7704;DHT22;3894;49.700;10.770;2023-05-07T00:57:41;13.90;99.90
7704;DHT22;3894;49.700;10.770;2023-05-07T01:00:08;13.90;99.90
7704;DHT22;3894;49.700;10.770;2023-05-07T01:02:35;13.90;99.90
7704;DHT22;3894;49.700;10.770;2023-05-07T01:05:02;13.90;99.90
7704;DHT22;3894;49.700;10.770;2023-05-07T01:07:29;13.90;99.90
7704;DHT22;3894;49.700;10.770;2023-05-07T01:09:56;14.00;99.90
7704;DHT22;3894;49.700;10.770;2023-05-07T01:12:22;14.00;99.90
7704;DHT22;3894;49.700;10.770;2023-05-07T01:14:48;14.00;99.90
7704;DHT22;3894;49.700;10.770;2023-05-07T01:17:15;14.00;99.90
7704;DHT22;3894;49.700;10.770;2023-05-07T01:19:41;14.00;99.90
7704;DHT22;3894;49.700;10.770;2023-05-07T01:22:08;13.90;99.90
7704;DHT22;3894;49.700;10.770;2023-05-07T01:24:37;13.90;99.90
7704;DHT22;3894;49.700;10.770;2023-05-07T01:27:03;13.90;99.90
7704;DHT22;3894;49.700;10.770;2023-05-07T01:29:28;13.90;99.90
7704;DHT22;3894;49.700;10.770;2023-05-07T01:31:57;13.90;99.90
7704;DHT22;3894;49.700;10.770;2023-05-07T01:34:25;13.90;99.90
7704;DHT22;3894;49.700;10.770;2023-05-07T01:36:53;13.90;99.90
7704;DHT22;3894;49.700;10.770;2023-05-07T01:39:18;13.90;99.90
7704;DHT22;3894;49.700;10.770;2023-05-07T01:41:45;13.90;99.90
7704;DHT22;3894;49.700;10.770;2023-05-07T01:44:12;13.80;99.90
7704;DHT22;3894;49.700;10.770;2023-05-07T01:46:38;13.80;99.90
7704;DHT22;3894;49.700;10.770;2023-05-07T01:49:04;13.80;99.90
7704;DHT22;3894;49.700;10.770;2023-05-07T01:51:30;13.80;99.90
7704;DHT22;3894;49.700;10.770;2023-05-07T01:53:56;13.80;99.90
7704;DHT22;3894;49.700;10.770;2023-05-07T01:56:24;13.70;99.90
7704;DHT22;3894;49.700;10.770;2023-05-07T01:58:50;13.70;99.90
7704;DHT22;3894;49.700;10.770;2023-05-07T02:01:16;13.70;99.90
7704;DHT22;3894;49.700;10.770;2023-05-07T02:03:42;13.70;99.90
7704;DHT22;3894;49.700;10.770;2023-05-07T02:06:07;13.70;99.90
7704;DHT22;3894;49.700;10.770;2023-05-07T02:08:33;13.70;99.90
7704;DHT22;3894;49.700;10.770;2023-05-07T02:10:58;13.70;99.90
7704;DHT22;3894;49.700;10.770;2023-05-07T02:13:25;13.70;99.90
7704;DHT22;3894;49.700;10.770;2023-05-07T02:15:51;13.70;99.90
7704;DHT22;3894;49.700;10.770;2023-05-07T02:18:17;13.70;99.90
7704;DHT22;3894;49.700;10.770;2023-05-07T02:20:43;13.70;99.90
7704;DHT22;3894;49.700;10.770;2023-05-07T02:23:08;13.70;99.90
7704;DHT22;3894;49.700;10.770;2023-05-07T02:25:34;13.70;99.90
7704;DHT22;3894;49.700;10.770;2023-05-07T02:27:59;13.60;99.90
7704;DHT22;3894;49.700;10.770;2023-05-07T02:30:26;13.60;99.90
7704;DHT22;3894;49.700;10.770;2023-05-07T02:32:52;13.60;99.90
7704;DHT22;3894;49.700;10.770;2023-05-07T02:35:17;13.50;99.90
7704;DHT22;3894;49.700;10.770;2023-05-07T02:37:43;13.50;99.90
7704;DHT22;3894;49.700;10.770;2023-05-07T02:40:09;13.40;99.90
7704;DHT22;3894;49.700;10.770;2023-05-07T02:42:35;13.40;99.90
7704;DHT22;3894;49.700;10.770;2023-05-07T02:45:01;13.40;99.90
7704;DHT22;3894;49.700;10.770;2023-05-07T02:47:26;13.30;99.90
7704;DHT22;3894;49.700;10.770;2023-05-07T02:49:56;13.30;99.90
7704;DHT22;3894;49.700;10.770;2023-05-07T02:52:22;13.40;99.90
7704;DHT22;3894;49.700;10.770;2023-05-07T02:54:49;13.40;99.90
7704;DHT22;3894;49.700;10.770;2023-05-07T02:57:14;13.40;99.90
7704;DHT22;3894;49.700;10.770;2023-05-07T02:59:41;13.40;99.90
7704;DHT22;3894;49.700;10.770;2023-05-07T03:02:06;13.40;99.90
7704;DHT22;3894;49.700;10.770;2023-05-07T03:04:32;13.40;99.90
7704;DHT22;3894;49.700;10.770;2023-05-07T03:06:57;13.40;99.90
7704;DHT22;3894;49.700;10.770;2023-05-07T03:09:23;13.40;99.90
7704;DHT22;3894;49.700;10.770;2023-05-07T03:11:48;13.40;99.90
7704;DHT22;3894;49.700;10.770;2023-05-07T03:14:14;13.30;99.90
7704;DHT22;3894;49.700;10.770;2023-05-07T03:16:40;13.30;99.90
7704;DHT22;3894;49.700;10.770;2023-05-07T03:19:05;13.20;99.90
7704;DHT22;3894;49.700;10.770;2023-05-07T03:21:31;13.20;99.90
7704;DHT22;3894;49.700;10.770;2023-05-07T03:23:59;13.10;99.90
7704;DHT22;3894;49.700;10.770;2023-05-07T03:26:24;13.10;99.90
7704;DHT22;3894;49.700;10.770;2023-05-07T03:28:50;13.10;99.90
7704;DHT22;3894;49.700;10.770;2023-05-07T03:31:16;13.00;99.90
7704;DHT22;3894;49.700;10.770;2023-05-07T03:33:53;13.00;99.90
7704;DHT22;3894;49.700;10.770;2023-05-07T03:36:19;13.00;99.90
7704;DHT22;3894;49.700;10.770;2023-05-07T03:38:45;13.00;99.90
7704;DHT22;3894;49.700;10.770;2023-05-07T03:41:11;12.90;99.90
7704;DHT22;3894;49.700;10.770;2023-05-07T03:43:37;12.80;99.90
7704;DHT22;3894;49.700;10.770;2023-05-07T03:46:02;12.80;99.90
7704;DHT22;3894;49.700;10.770;2023-05-07T03:48:28;12.80;99.90
7704;DHT22;3894;49.700;10.770;2023-05-07T03:50:53;12.80;99.90
7704;DHT22;3894;49.700;10.770;2023-05-07T03:53:19;12.80;99.90
7704;DHT22;3894;49.700;10.770;2023-05-07T03:55:45;12.80;99.90
7704;DHT22;3894;49.700;10.770;2023-05-07T03:58:10;12.70;99.90
7704;DHT22;3894;49.700;10.770;2023-05-07T04:00:36;12.80;99.90
7704;DHT22;3894;49.700;10.770;2023-05-07T04:03:04;12.80;99.90
7704;DHT22;3894;49.700;10.770;2023-05-07T04:05:30;12.80;99.90
7704;DHT22;3894;49.700;10.770;2023-05-07T04:07:58;12.80;99.90
7704;DHT22;3894;49.700;10.770;2023-05-07T04:10:24;12.80;99.90
7704;DHT22;3894;49.700;10.770;2023-05-07T04:12:49;12.80;99.90
7704;DHT22;3894;49.700;10.770;2023-05-07T04:15:15;12.80;99.90
7704;DHT22;3894;49.700;10.770;2023-05-07T04:17:40;12.80;99.90
7704;DHT22;3894;49.700;10.770;2023-05-07T04:20:09;12.90;99.90
7704;DHT22;3894;49.700;10.770;2023-05-07T04:22:35;12.90;99.90
7704;DHT22;3894;49.700;10.770;2023-05-07T04:25:01;12.90;99.90
7704;DHT22;3894;49.700;10.770;2023-05-07T04:27:27;12.90;99.90
7704;DHT22;3894;49.700;10.770;2023-05-07T04:29:53;12.90;99.90
7704;DHT22;3894;49.700;10.770;2023-05-07T04:32:21;12.90;99.90
7704;DHT22;3894;49.700;10.770;2023-05-07T04:34:46;12.90;99.90
7704;DHT22;3894;49.700;10.770;2023-05-07T04:37:12;13.00;99.90
7704;DHT22;3894;49.700;10.770;2023-05-07T04:39:37;13.10;99.90
7704;DHT22;3894;49.700;10.770;2023-05-07T04:42:03;13.10;99.90
7704;DHT22;3894;49.700;10.770;2023-05-07T04:44:29;13.10;99.90
7704;DHT22;3894;49.700;10.770;2023-05-07T04:46:56;13.10;99.90
7704;DHT22;3894;49.700;10.770;2023-05-07T04:49:22;13.10;99.90
7704;DHT22;3894;49.700;10.770;2023-05-07T04:51:47;13.20;99.90
7704;DHT22;3894;49.700;10.770;2023-05-07T04:54:13;13.20;99.90
7704;DHT22;3894;49.700;10.770;2023-05-07T04:56:38;13.30;99.90
7704;DHT22;3894;49.700;10.770;2023-05-07T04:59:04;13.40;99.90
7704;DHT22;3894;49.700;10.770;2023-05-07T05:01:30;13.50;99.90
7704;DHT22;3894;49.700;10.770;2023-05-07T05:03:55;13.50;99.90
7704;DHT22;3894;49.700;10.770;2023-05-07T05:06:21;13.50;99.90
7704;DHT22;3894;49.700;10.770;2023-05-07T05:08:46;13.60;99.90
7704;DHT22;3894;49.700;10.770;2023-05-07T05:11:12;13.60;99.90
7704;DHT22;3894;49.700;10.770;2023-05-07T05:13:37;13.60;99.90
7704;DHT22;3894;49.700;10.770;2023-05-07T05:16:03;13.70;99.90
7704;DHT22;3894;49.700;10.770;2023-05-07T05:18:29;13.70;99.90
7704;DHT22;3894;49.700;10.770;2023-05-07T05:20:54;13.70;99.90
7704;DHT22;3894;49.700;10.770;2023-05-07T05:23:20;13.80;99.90
7704;DHT22;3894;49.700;10.770;2023-05-07T05:25:45;13.90;99.90
7704;DHT22;3894;49.700;10.770;2023-05-07T05:28:11;13.90;99.90
7704;DHT22;3894;49.700;10.770;2023-05-07T05:30:37;14.00;99.90
7704;DHT22;3894;49.700;10.770;2023-05-07T05:33:02;14.10;99.90
7704;DHT22;3894;49.700;10.770;2023-05-07T05:35:29;14.20;99.90
7704;DHT22;3894;49.700;10.770;2023-05-07T05:37:54;14.30;99.90
7704;DHT22;3894;49.700;10.770;2023-05-07T05:40:20;14.40;99.90
7704;DHT22;3894;49.700;10.770;2023-05-07T05:42:46;14.70;99.90
7704;DHT22;3894;49.700;10.770;2023-05-07T05:45:11;14.80;99.90
7704;DHT22;3894;49.700;10.770;2023-05-07T05:47:37;14.70;99.90
7704;DHT22;3894;49.700;10.770;2023-05-07T05:50:04;14.60;99.90
7704;DHT22;3894;49.700;10.770;2023-05-07T05:52:31;14.50;99.90
7704;DHT22;3894;49.700;10.770;2023-05-07T05:54:57;14.40;99.90
7704;DHT22;3894;49.700;10.770;2023-05-07T05:57:22;14.30;99.90
7704;DHT22;3894;49.700;10.770;2023-05-07T05:59:51;14.30;99.90
7704;DHT22;3894;49.700;10.770;2023-05-07T06:02:17;14.30;99.90
7704;DHT22;3894;49.700;10.770;2023-05-07T06:04:42;14.30;99.90
7704;DHT22;3894;49.700;10.770;2023-05-07T06:07:08;14.30;99.90
7704;DHT22;3894;49.700;10.770;2023-05-07T06:09:34;14.40;99.90
7704;DHT22;3894;49.700;10.770;2023-05-07T06:12:00;14.40;99.90
7704;DHT22;3894;49.700;10.770;2023-05-07T06:14:25;14.50;99.90
7704;DHT22;3894;49.700;10.770;2023-05-07T06:16:51;14.50;99.90
7704;DHT22;3894;49.700;10.770;2023-05-07T06:19:16;14.50;99.90
7704;DHT22;3894;49.700;10.770;2023-05-07T06:21:43;14.60;99.90
7704;DHT22;3894;49.700;10.770;2023-05-07T06:24:09;14.60;99.90
7704;DHT22;3894;49.700;10.770;2023-05-07T06:26:35;14.70;99.90
7704;DHT22;3894;49.700;10.770;2023-05-07T06:29:00;14.70;99.90
7704;DHT22;3894;49.700;10.770;2023-05-07T06:31:29;14.80;99.90
7704;DHT22;3894;49.700;10.770;2023-05-07T06:33:56;14.90;99.90
7704;DHT22;3894;49.700;10.770;2023-05-07T06:36:21;14.90;99.90
7704;DHT22;3894;49.700;10.770;2023-05-07T06:38:47;14.90;99.90
7704;DHT22;3894;49.700;10.770;2023-05-07T06:41:12;15.00;99.90
7704;DHT22;3894;49.700;10.770;2023-05-07T06:43:38;15.10;99.90
7704;DHT22;3894;49.700;10.770;2023-05-07T06:46:05;15.10;99.90
7704;DHT22;3894;49.700;10.770;2023-05-07T06:48:30;15.30;99.90
7704;DHT22;3894;49.700;10.770;2023-05-07T06:50:56;15.30;99.90
7704;DHT22;3894;49.700;10.770;2023-05-07T06:53:23;15.30;99.90
7704;DHT22;3894;49.700;10.770;2023-05-07T06:55:48;15.30;99.90
7704;DHT22;3894;49.700;10.770;2023-05-07T06:58:14;15.30;99.90
7704;DHT22;3894;49.700;10.770;2023-05-07T07:00:40;15.40;99.90
7704;DHT22;3894;49.700;10.770;2023-05-07T07:03:06;15.40;99.90
7704;DHT22;3894;49.700;10.770;2023-05-07T07:05:31;15.40;99.90
7704;DHT22;3894;49.700;10.770;2023-05-07T07:07:57;15.40;99.90
7704;DHT22;3894;49.700;10.770;2023-05-07T07:10:23;15.50;99.90
7704;DHT22;3894;49.700;10.770;2023-05-07T07:12:49;15.50;99.90
7704;DHT22;3894;49.700;10.770;2023-05-07T07:15:15;15.50;99.90
7704;DHT22;3894;49.700;10.770;2023-05-07T07:17:40;15.60;99.90
7704;DHT22;3894;49.700;10.770;2023-05-07T07:20:06;15.70;99.90
7704;DHT22;3894;49.700;10.770;2023-05-07T07:22:32;15.70;99.90
7704;DHT22;3894;49.700;10.770;2023-05-07T07:24:57;15.70;99.90
7704;DHT22;3894;49.700;10.770;2023-05-07T07:27:23;15.80;99.90
7704;DHT22;3894;49.700;10.770;2023-05-07T07:29:49;15.90;99.90
7704;DHT22;3894;49.700;10.770;2023-05-07T07:32:14;15.90;99.90
7704;DHT22;3894;49.700;10.770;2023-05-07T07:34:40;16.00;99.90
7704;DHT22;3894;49.700;10.770;2023-05-07T07:37:05;16.00;99.90
7704;DHT22;3894;49.700;10.770;2023-05-07T07:39:35;16.10;99.90
7704;DHT22;3894;49.700;10.770;2023-05-07T07:42:03;16.20;99.90
7704;DHT22;3894;49.700;10.770;2023-05-07T07:44:28;16.20;99.90
7704;DHT22;3894;49.700;10.770;2023-05-07T07:46:54;16.50;99.90
7704;DHT22;3894;49.700;10.770;2023-05-07T07:49:19;16.80;99.90
7704;DHT22;3894;49.700;10.770;2023-05-07T07:51:45;17.00;99.90
7704;DHT22;3894;49.700;10.770;2023-05-07T07:54:11;17.20;99.90
7704;DHT22;3894;49.700;10.770;2023-05-07T07:56:36;17.30;99.90
7704;DHT22;3894;49.700;10.770;2023-05-07T07:59:02;17.30;99.90
7704;DHT22;3894;49.700;10.770;2023-05-07T08:01:30;17.50;99.90
7704;DHT22;3894;49.700;10.770;2023-05-07T08:03:55;17.70;99.90
7704;DHT22;3894;49.700;10.770;2023-05-07T08:06:23;17.80;99.90
7704;DHT22;3894;49.700;10.770;2023-05-07T08:08:48;17.90;99.90
7704;DHT22;3894;49.700;10.770;2023-05-07T08:11:14;17.80;99.90
7704;DHT22;3894;49.700;10.770;2023-05-07T08:13:40;17.90;99.90
7704;DHT22;3894;49.700;10.770;2023-05-07T08:16:05;17.90;99.90
7704;DHT22;3894;49.700;10.770;2023-05-07T08:18:31;17.90;99.90
7704;DHT22;3894;49.700;10.770;2023-05-07T08:20:57;17.90;99.90
7704;DHT22;3894;49.700;10.770;2023-05-07T08:23:22;17.90;99.90
7704;DHT22;3894;49.700;10.770;2023-05-07T08:25:49;17.90;99.90
7704;DHT22;3894;49.700;10.770;2023-05-07T08:28:14;18.00;99.90
7704;DHT22;3894;49.700;10.770;2023-05-07T08:30:40;18.10;99.90
7704;DHT22;3894;49.700;10.770;2023-05-07T08:33:06;18.10;99.90
7704;DHT22;3894;49.700;10.770;2023-05-07T08:35:31;18.20;99.90
7704;DHT22;3894;49.700;10.770;2023-05-07T08:37:57;18.20;99.90
7704;DHT22;3894;49.700;10.770;2023-05-07T08:40:25;18.70;99.90
7704;DHT22;3894;49.700;10.770;2023-05-07T08:42:53;19.00;99.90
7704;DHT22;3894;49.700;10.770;2023-05-07T08:45:19;19.20;99.90
7704;DHT22;3894;49.700;10.770;2023-05-07T08:47:57;19.30;99.90
7704;DHT22;3894;49.700;10.770;2023-05-07T08:50:23;19.40;99.90
7704;DHT22;3894;49.700;10.770;2023-05-07T08:52:49;19.60;99.90
7704;DHT22;3894;49.700;10.770;2023-05-07T08:55:15;19.90;99.90
7704;DHT22;3894;49.700;10.770;2023-05-07T08:57:41;20.20;99.90
7704;DHT22;3894;49.700;10.770;2023-05-07T09:00:07;20.30;99.90
7704;DHT22;3894;49.700;10.770;2023-05-07T09:02:34;20.10;99.90
7704;DHT22;3894;49.700;10.770;2023-05-07T09:05:00;19.90;99.90
7704;DHT22;3894;49.700;10.770;2023-05-07T09:07:26;20.10;99.90
7704;DHT22;3894;49.700;10.770;2023-05-07T09:09:52;20.20;99.90
7704;DHT22;3894;49.700;10.770;2023-05-07T09:12:19;20.40;99.90
7704;DHT22;3894;49.700;10.770;2023-05-07T09:14:45;20.60;99.90
7704;DHT22;3894;49.700;10.770;2023-05-07T09:17:12;20.30;99.90
7704;DHT22;3894;49.700;10.770;2023-05-07T09:19:39;20.10;99.90
7704;DHT22;3894;49.700;10.770;2023-05-07T09:22:05;19.80;99.90
7704;DHT22;3894;49.700;10.770;2023-05-07T09:24:32;19.70;99.90
7704;DHT22;3894;49.700;10.770;2023-05-07T09:27:03;19.50;99.90
7704;DHT22;3894;49.700;10.770;2023-05-07T09:29:29;19.40;99.90
7704;DHT22;3894;49.700;10.770;2023-05-07T09:31:58;19.80;99.90
7704;DHT22;3894;49.700;10.770;2023-05-07T09:34:23;20.40;99.90
7704;DHT22;3894;49.700;10.770;2023-05-07T09:36:49;20.70;99.90
7704;DHT22;3894;49.700;10.770;2023-05-07T09:39:15;20.80;99.90
7704;DHT22;3894;49.700;10.770;2023-05-07T09:41:47;20.50;99.90
7704;DHT22;3894;49.700;10.770;2023-05-07T09:44:13;20.30;99.90
7704;DHT22;3894;49.700;10.770;2023-05-07T09:46:42;20.20;99.90
7704;DHT22;3894;49.700;10.770;2023-05-07T09:49:13;20.10;99.90
7704;DHT22;3894;49.700;10.770;2023-05-07T09:51:48;20.20;99.90
7704;DHT22;3894;49.700;10.770;2023-05-07T09:54:15;20.30;99.90
7704;DHT22;3894;49.700;10.770;2023-05-07T09:56:43;20.40;99.90
7704;DHT22;3894;49.700;10.770;2023-05-07T09:59:12;20.40;99.90
7704;DHT22;3894;49.700;10.770;2023-05-07T10:01:38;20.40;99.90
7704;DHT22;3894;49.700;10.770;2023-05-07T10:04:05;20.60;99.90
7704;DHT22;3894;49.700;10.770;2023-05-07T10:06:31;20.70;99.90
7704;DHT22;3894;49.700;10.770;2023-05-07T10:08:56;21.00;99.90
7704;DHT22;3894;49.700;10.770;2023-05-07T10:11:22;21.30;99.90
7704;DHT22;3894;49.700;10.770;2023-05-07T10:13:48;21.60;99.90
7704;DHT22;3894;49.700;10.770;2023-05-07T10:16:14;21.80;99.90
7704;DHT22;3894;49.700;10.770;2023-05-07T10:18:40;21.80;99.90
7704;DHT22;3894;49.700;10.770;2023-05-07T10:21:23;21.80;99.90
7704;DHT22;3894;49.700;10.770;2023-05-07T10:24:13;22.10;99.90
7704;DHT22;3894;49.700;10.770;2023-05-07T10:26:43;22.20;99.90
7704;DHT22;3894;49.700;10.770;2023-05-07T10:29:21;21.80;99.90
7704;DHT22;3894;49.700;10.770;2023-05-07T10:32:10;21.50;99.90
7704;DHT22;3894;49.700;10.770;2023-05-07T10:34:43;21.30;99.90
7704;DHT22;3894;49.700;10.770;2023-05-07T10:37:09;21.60;99.90
7704;DHT22;3894;49.700;10.770;2023-05-07T10:39:36;21.70;99.90
7704;DHT22;3894;49.700;10.770;2023-05-07T10:42:12;21.70;99.90
7704;DHT22;3894;49.700;10.770;2023-05-07T10:44:38;21.70;99.90
7704;DHT22;3894;49.700;10.770;2023-05-07T10:47:06;21.70;99.90
7704;DHT22;3894;49.700;10.770;2023-05-07T10:52:22;22.20;99.90
7704;DHT22;3894;49.700;10.770;2023-05-07T10:57:42;22.10;99.90
7704;DHT22;3894;49.700;10.770;2023-05-07T11:05:30;22.00;99.90
7704;DHT22;3894;49.700;10.770;2023-05-07T11:08:00;22.40;99.90
7704;DHT22;3894;49.700;10.770;2023-05-07T11:10:49;22.40;99.90
7704;DHT22;3894;49.700;10.770;2023-05-07T11:13:15;22.50;99.90
7704;DHT22;3894;49.700;10.770;2023-05-07T11:15:46;22.60;99.90
7704;DHT22;3894;49.700;10.770;2023-05-07T11:18:13;22.40;99.90
7704;DHT22;3894;49.700;10.770;2023-05-07T11:20:56;22.70;99.90
7704;DHT22;3894;49.700;10.770;2023-05-07T11:26:06;23.00;99.90
7704;DHT22;3894;49.700;10.770;2023-05-07T11:28:38;22.60;99.90
7704;DHT22;3894;49.700;10.770;2023-05-07T11:31:04;22.30;99.90
7704;DHT22;3894;49.700;10.770;2023-05-07T11:33:30;22.20;99.90
7704;DHT22;3894;49.700;10.770;2023-05-07T11:35:57;22.20;99.90
7704;DHT22;3894;49.700;10.770;2023-05-07T11:38:23;22.50;99.90
7704;DHT22;3894;49.700;10.770;2023-05-07T11:40:52;22.40;99.90
7704;DHT22;3894;49.700;10.770;2023-05-07T11:43:18;22.50;99.90
7704;DHT22;3894;49.700;10.770;2023-05-07T11:45:45;22.80;99.90
7704;DHT22;3894;49.700;10.770;2023-05-07T11:48:12;23.20;99.90
7704;DHT22;3894;49.700;10.770;2023-05-07T11:53:18;23.70;99.90
7704;DHT22;3894;49.700;10.770;2023-05-07T11:55:45;24.00;99.90
7704;DHT22;3894;49.700;10.770;2023-05-07T11:58:12;24.20;99.90
7704;DHT22;3894;49.700;10.770;2023-05-07T12:00:38;24.40;99.90
7704;DHT22;3894;49.700;10.770;2023-05-07T12:03:06;24.50;99.90
7704;DHT22;3894;49.700;10.770;2023-05-07T12:05:32;24.70;99.90
7704;DHT22;3894;49.700;10.770;2023-05-07T12:07:58;25.00;99.90
7704;DHT22;3894;49.700;10.770;2023-05-07T12:10:23;25.10;99.90
7704;DHT22;3894;49.700;10.770;2023-05-07T12:12:50;25.00;99.90
7704;DHT22;3894;49.700;10.770;2023-05-07T12:15:16;24.90;99.90
7704;DHT22;3894;49.700;10.770;2023-05-07T12:17:42;25.00;99.90
7704;DHT22;3894;49.700;10.770;2023-05-07T12:20:09;25.10;99.90
7704;DHT22;3894;49.700;10.770;2023-05-07T12:22:36;25.30;99.90
7704;DHT22;3894;49.700;10.770;2023-05-07T12:25:01;25.50;99.90
7704;DHT22;3894;49.700;10.770;2023-05-07T12:27:28;25.50;99.90
7704;DHT22;3894;49.700;10.770;2023-05-07T12:29:53;25.50;99.90
7704;DHT22;3894;49.700;10.770;2023-05-07T12:32:20;25.50;99.90
7704;DHT22;3894;49.700;10.770;2023-05-07T12:34:49;25.50;99.90
7704;DHT22;3894;49.700;10.770;2023-05-07T12:37:14;25.60;99.90
7704;DHT22;3894;49.700;10.770;2023-05-07T12:40:02;25.60;99.90
7704;DHT22;3894;49.700;10.770;2023-05-07T12:42:32;25.80;99.90
7704;DHT22;3894;49.700;10.770;2023-05-07T12:44:58;26.00;99.90
7704;DHT22;3894;49.700;10.770;2023-05-07T12:47:26;26.20;99.90
7704;DHT22;3894;49.700;10.770;2023-05-07T12:49:51;26.10;99.90
7704;DHT22;3894;49.700;10.770;2023-05-07T12:52:17;26.00;99.90
7704;DHT22;3894;49.700;10.770;2023-05-07T12:54:44;26.00;99.90
7704;DHT22;3894;49.700;10.770;2023-05-07T12:57:10;26.20;99.90
7704;DHT22;3894;49.700;10.770;2023-05-07T12:59:41;26.40;99.90
7704;DHT22;3894;49.700;10.770;2023-05-07T13:02:07;26.30;99.90
7704;DHT22;3894;49.700;10.770;2023-05-07T13:04:33;26.30;99.90
7704;DHT22;3894;49.700;10.770;2023-05-07T13:06:59;26.10;99.90
7704;DHT22;3894;49.700;10.770;2023-05-07T13:09:25;25.90;99.90
7704;DHT22;3894;49.700;10.770;2023-05-07T13:11:51;25.70;99.90
7704;DHT22;3894;49.700;10.770;2023-05-07T13:14:16;25.60;99.90
7704;DHT22;3894;49.700;10.770;2023-05-07T13:16:42;25.50;99.90
7704;DHT22;3894;49.700;10.770;2023-05-07T13:19:07;25.60;99.90
7704;DHT22;3894;49.700;10.770;2023-05-07T13:21:33;25.70;99.90
7704;DHT22;3894;49.700;10.770;2023-05-07T13:23:59;25.60;99.90
7704;DHT22;3894;49.700;10.770;2023-05-07T13:26:25;25.50;99.90
7704;DHT22;3894;49.700;10.770;2023-05-07T13:28:52;25.30;99.90
7704;DHT22;3894;49.700;10.770;2023-05-07T13:31:18;25.20;99.90
7704;DHT22;3894;49.700;10.770;2023-05-07T13:33:43;25.20;99.90
7704;DHT22;3894;49.700;10.770;2023-05-07T13:36:09;25.10;99.90
7704;DHT22;3894;49.700;10.770;2023-05-07T13:38:34;24.90;99.90
7704;DHT22;3894;49.700;10.770;2023-05-07T13:41:00;24.80;99.90
7704;DHT22;3894;49.700;10.770;2023-05-07T13:43:26;24.90;99.90
7704;DHT22;3894;49.700;10.770;2023-05-07T13:45:51;24.90;99.90
7704;DHT22;3894;49.700;10.770;2023-05-07T13:48:17;24.90;99.90
7704;DHT22;3894;49.700;10.770;2023-05-07T13:50:42;24.90;99.90
7704;DHT22;3894;49.700;10.770;2023-05-07T13:53:08;24.90;99.90
7704;DHT22;3894;49.700;10.770;2023-05-07T13:55:33;24.80;99.90
7704;DHT22;3894;49.700;10.770;2023-05-07T13:58:01;24.70;99.90
7704;DHT22;3894;49.700;10.770;2023-05-07T14:00:28;24.70;99.90
7704;DHT22;3894;49.700;10.770;2023-05-07T14:02:55;24.60;99.90
7704;DHT22;3894;49.700;10.770;2023-05-07T14:05:22;24.50;99.90
7704;DHT22;3894;49.700;10.770;2023-05-07T14:07:51;24.40;99.90
7704;DHT22;3894;49.700;10.770;2023-05-07T14:10:18;24.20;99.80
7704;DHT22;3894;49.700;10.770;2023-05-07T14:12:44;24.10;99.90
7704;DHT22;3894;49.700;10.770;2023-05-07T14:15:10;24.00;99.90
7704;DHT22;3894;49.700;10.770;2023-05-07T14:17:36;24.00;99.90
7704;DHT22;3894;49.700;10.770;2023-05-07T14:20:02;24.10;99.90
7704;DHT22;3894;49.700;10.770;2023-05-07T14:22:28;24.20;99.90
7704;DHT22;3894;49.700;10.770;2023-05-07T14:24:53;24.20;99.90
7704;DHT22;3894;49.700;10.770;2023-05-07T14:27:19;24.20;99.90
7704;DHT22;3894;49.700;10.770;2023-05-07T14:29:44;24.20;99.90
7704;DHT22;3894;49.700;10.770;2023-05-07T14:32:11;24.20;99.90
7704;DHT22;3894;49.700;10.770;2023-05-07T14:34:36;24.30;99.90
7704;DHT22;3894;49.700;10.770;2023-05-07T14:37:02;24.20;99.90
7704;DHT22;3894;49.700;10.770;2023-05-07T14:39:28;24.10;99.90
7704;DHT22;3894;49.700;10.770;2023-05-07T14:41:53;24.10;99.90
7704;DHT22;3894;49.700;10.770;2023-05-07T14:44:20;24.00;99.90
7704;DHT22;3894;49.700;10.770;2023-05-07T14:46:50;23.90;99.90
7704;DHT22;3894;49.700;10.770;2023-05-07T14:49:16;24.00;99.90
7704;DHT22;3894;49.700;10.770;2023-05-07T14:51:44;23.90;99.60
7704;DHT22;3894;49.700;10.770;2023-05-07T14:54:10;23.90;99.40
7704;DHT22;3894;49.700;10.770;2023-05-07T14:56:36;23.80;99.40
7704;DHT22;3894;49.700;10.770;2023-05-07T14:59:02;23.80;99.40
7704;DHT22;3894;49.700;10.770;2023-05-07T15:01:28;23.80;99.60
7704;DHT22;3894;49.700;10.770;2023-05-07T15:03:54;23.80;99.60
7704;DHT22;3894;49.700;10.770;2023-05-07T15:06:21;23.80;99.50
7704;DHT22;3894;49.700;10.770;2023-05-07T15:08:46;23.70;99.90
7704;DHT22;3894;49.700;10.770;2023-05-07T15:11:12;23.60;99.90
7704;DHT22;3894;49.700;10.770;2023-05-07T15:13:38;23.50;99.50
7704;DHT22;3894;49.700;10.770;2023-05-07T15:16:03;23.50;99.70
7704;DHT22;3894;49.700;10.770;2023-05-07T15:18:29;23.50;99.50
7704;DHT22;3894;49.700;10.770;2023-05-07T15:20:55;23.50;99.80
7704;DHT22;3894;49.700;10.770;2023-05-07T15:23:22;23.50;99.90
7704;DHT22;3894;49.700;10.770;2023-05-07T15:25:47;23.50;99.80
7704;DHT22;3894;49.700;10.770;2023-05-07T15:28:13;23.40;99.90
7704;DHT22;3894;49.700;10.770;2023-05-07T15:30:38;23.40;99.80
7704;DHT22;3894;49.700;10.770;2023-05-07T15:33:04;23.30;99.40
7704;DHT22;3894;49.700;10.770;2023-05-07T15:35:29;23.30;99.40
7704;DHT22;3894;49.700;10.770;2023-05-07T15:37:55;23.20;99.40
7704;DHT22;3894;49.700;10.770;2023-05-07T15:40:21;23.10;99.40
7704;DHT22;3894;49.700;10.770;2023-05-07T15:42:46;23.10;99.30
7704;DHT22;3894;49.700;10.770;2023-05-07T15:45:12;23.00;99.60
7704;DHT22;3894;49.700;10.770;2023-05-07T15:47:38;23.00;99.60
7704;DHT22;3894;49.700;10.770;2023-05-07T15:50:04;23.00;99.80
7704;DHT22;3894;49.700;10.770;2023-05-07T15:52:30;22.90;99.90
7704;DHT22;3894;49.700;10.770;2023-05-07T15:54:56;22.90;99.70
7704;DHT22;3894;49.700;10.770;2023-05-07T15:57:23;22.90;99.60